createdAt,value
2022-11-05T00:00:41.254Z,8.70
2022-11-05T00:03:28.102Z,8.80
2022-11-05T00:06:13.517Z,8.80
2022-11-05T00:09:00.002Z,8.70
2022-11-05T00:11:43.399Z,8.70
2022-11-05T00:14:28.995Z,8.70
2022-11-05T00:16:57.056Z,8.70
2022-11-05T00:19:25.102Z,8.60
2022-11-05T00:22:10.718Z,8.60
2022-11-05T00:24:56.396Z,8.70
2022-11-05T00:27:25.851Z,8.70
2022-11-05T00:29:53.875Z,8.70
2022-11-05T00:32:21.934Z,8.70
2022-11-05T00:34:49.958Z,8.70
2022-11-05T00:37:17.999Z,8.60
2022-11-05T00:39:46.037Z,8.60
2022-11-05T00:42:31.650Z,8.60
2022-11-05T00:45:03.739Z,8.70
2022-11-05T00:47:50.407Z,8.70
2022-11-05T00:50:19.225Z,8.60
2022-11-05T00:52:58.037Z,8.60
2022-11-05T00:55:29.046Z,8.60
2022-11-05T00:57:58.021Z,8.70
2022-11-05T01:00:29.518Z,8.60
2022-11-05T01:03:02.588Z,8.60
2022-11-05T01:05:31.595Z,8.60
2022-11-05T01:08:00.318Z,8.60
2022-11-05T01:10:29.456Z,8.70
2022-11-05T01:12:57.526Z,8.70
2022-11-05T01:15:26.985Z,8.70
2022-11-05T01:17:55.019Z,8.70
2022-11-05T01:20:23.156Z,8.70
2022-11-05T01:22:51.209Z,8.70
2022-11-05T01:25:19.463Z,8.70
2022-11-05T01:27:47.717Z,8.70
2022-11-05T01:30:16.058Z,8.70
2022-11-05T01:32:45.717Z,8.70
2022-11-05T01:35:16.397Z,8.70
2022-11-05T01:37:45.093Z,8.70
2022-11-05T01:40:15.748Z,8.60
2022-11-05T01:42:45.100Z,8.60
2022-11-05T01:45:16.471Z,8.60
2022-11-05T01:47:52.576Z,8.50
2022-11-05T01:50:48.464Z,8.50
2022-11-05T01:53:22.879Z,8.50
2022-11-05T01:55:56.480Z,8.40
2022-11-05T01:58:27.471Z,8.40
2022-11-05T02:00:57.780Z,8.40
2022-11-05T02:03:28.117Z,8.40
2022-11-05T02:05:58.374Z,8.40
2022-11-05T02:08:37.235Z,8.30
2022-11-05T02:11:05.947Z,8.30
2022-11-05T02:13:33.999Z,8.40
2022-11-05T02:16:09.651Z,8.40
2022-11-05T02:18:52.023Z,8.40
2022-11-05T02:21:57.838Z,8.30
2022-11-05T02:24:59.393Z,8.30
2022-11-05T02:27:49.807Z,8.30
2022-11-05T02:30:43.584Z,8.30
2022-11-05T02:33:31.183Z,8.20
2022-11-05T02:36:20.271Z,8.20
2022-11-05T02:38:54.369Z,8.10
2022-11-05T02:41:30.632Z,8.10
2022-11-05T02:44:09.254Z,8.10
2022-11-05T02:46:49.558Z,8.00
2022-11-05T02:49:27.361Z,8.00
2022-11-05T02:51:59.274Z,8.00
2022-11-05T02:54:34.023Z,8.00
2022-11-05T02:57:03.669Z,7.90
2022-11-05T02:59:32.289Z,7.80
2022-11-05T03:02:02.679Z,7.80
2022-11-05T03:04:32.199Z,7.70
2022-11-05T03:07:16.373Z,7.80
2022-11-05T03:10:11.311Z,7.70
2022-11-05T03:12:49.491Z,7.80
2022-11-05T03:15:30.446Z,7.70
2022-11-05T03:18:09.587Z,7.70
2022-11-05T03:20:41.801Z,7.60
2022-11-05T03:23:16.358Z,7.60
2022-11-05T03:25:49.532Z,7.60
2022-11-05T03:28:21.049Z,7.60
2022-11-05T03:30:53.250Z,7.60
2022-11-05T03:33:26.556Z,7.50
2022-11-05T03:35:58.736Z,7.50
2022-11-05T03:38:32.130Z,7.40
2022-11-05T03:41:05.282Z,7.30
2022-11-05T03:43:36.872Z,7.30
2022-11-05T03:46:09.276Z,7.40
2022-11-05T03:48:42.472Z,7.40
2022-11-05T03:51:17.564Z,7.40
2022-11-05T03:53:50.491Z,7.40
2022-11-05T03:56:24.378Z,7.40
2022-11-05T03:58:57.675Z,7.30
2022-11-05T04:01:27.504Z,7.40
2022-11-05T04:03:57.347Z,7.40
2022-11-05T04:06:42.725Z,7.40
2022-11-05T04:09:29.202Z,7.30
2022-11-05T04:12:14.793Z,7.30
2022-11-05T04:14:42.824Z,7.30
2022-11-05T04:17:10.090Z,7.30
2022-11-05T04:19:58.277Z,7.20
2022-11-05T04:22:45.574Z,7.20
2022-11-05T04:25:14.681Z,7.10
2022-11-05T04:27:42.773Z,7.10
2022-11-05T04:30:19.723Z,7.00
2022-11-05T04:33:02.348Z,7.10
2022-11-05T04:35:33.587Z,7.20
2022-11-05T04:38:01.784Z,7.20
2022-11-05T04:40:30.170Z,7.20
2022-11-05T04:42:58.582Z,7.30
2022-11-05T04:45:27.970Z,7.40
2022-11-05T04:47:56.175Z,7.40
2022-11-05T04:50:24.539Z,7.30
2022-11-05T04:52:54.058Z,7.30
2022-11-05T04:55:22.269Z,7.30
2022-11-05T04:57:51.302Z,7.30
2022-11-05T05:00:20.540Z,7.30
2022-11-05T05:02:49.151Z,7.30
2022-11-05T05:05:17.321Z,7.20
2022-11-05T05:07:45.715Z,7.20
2022-11-05T05:10:15.208Z,7.30
2022-11-05T05:12:43.284Z,7.20
2022-11-05T05:15:11.420Z,7.30
2022-11-05T05:17:39.625Z,7.30
2022-11-05T05:20:26.034Z,7.20
2022-11-05T05:22:54.688Z,7.30
2022-11-05T05:25:24.397Z,7.40
2022-11-05T05:27:52.552Z,7.50
2022-11-05T05:30:20.631Z,7.40
2022-11-05T05:32:48.715Z,7.40
2022-11-05T05:35:17.187Z,7.40
2022-11-05T05:37:45.548Z,7.40
2022-11-05T05:40:13.643Z,7.40
2022-11-05T05:42:43.765Z,7.40
2022-11-05T05:45:13.425Z,7.50
2022-11-05T05:47:41.476Z,7.50
2022-11-05T05:50:10.338Z,7.50
2022-11-05T05:52:38.515Z,7.50
2022-11-05T05:55:07.318Z,7.50
2022-11-05T05:57:35.611Z,7.50
2022-11-05T06:00:05.714Z,7.40
2022-11-05T06:02:33.811Z,7.40
2022-11-05T06:05:01.952Z,7.40
2022-11-05T06:07:34.531Z,7.30
2022-11-05T06:10:06.750Z,7.30
2022-11-05T06:12:35.041Z,7.30
2022-11-05T06:15:05.348Z,7.30
2022-11-05T06:17:34.574Z,7.30
2022-11-05T06:20:02.681Z,7.30
2022-11-05T06:22:30.706Z,7.30
2022-11-05T06:24:58.797Z,7.30
2022-11-05T06:27:26.891Z,7.30
2022-11-05T06:29:54.972Z,7.30
2022-11-05T06:32:24.393Z,7.30
2022-11-05T06:34:52.442Z,7.30
2022-11-05T06:37:20.479Z,7.30
2022-11-05T06:39:48.592Z,7.30
2022-11-05T06:42:19.079Z,7.20
2022-11-05T06:44:48.105Z,7.20
2022-11-05T06:47:16.159Z,7.20
2022-11-05T06:49:45.607Z,7.20
2022-11-05T06:52:14.654Z,7.20
2022-11-05T06:54:43.931Z,7.20
2022-11-05T06:57:13.788Z,7.20
2022-11-05T06:59:42.140Z,7.20
2022-11-05T07:02:13.739Z,7.30
2022-11-05T07:04:42.786Z,7.30
2022-11-05T07:07:12.219Z,7.30
2022-11-05T07:09:43.092Z,7.40
2022-11-05T07:12:11.338Z,7.40
2022-11-05T07:14:39.435Z,7.50
2022-11-05T07:17:07.476Z,7.50
2022-11-05T07:19:35.558Z,7.50
2022-11-05T07:22:03.607Z,7.50
2022-11-05T07:24:33.001Z,7.60
2022-11-05T07:27:01.104Z,7.60
2022-11-05T07:29:29.117Z,7.60
2022-11-05T07:31:57.201Z,7.60
2022-11-05T07:34:25.245Z,7.60
2022-11-05T07:36:53.319Z,7.70
2022-11-05T07:39:21.690Z,7.70
2022-11-05T07:41:53.012Z,7.70
2022-11-05T07:44:21.063Z,7.70
2022-11-05T07:46:49.209Z,7.80
2022-11-05T07:49:17.248Z,7.90
2022-11-05T07:51:45.350Z,7.90
2022-11-05T07:54:13.391Z,7.90
2022-11-05T07:56:41.489Z,8.10
2022-11-05T07:59:10.942Z,8.30
2022-11-05T08:01:39.187Z,8.40
2022-11-05T08:04:07.389Z,8.30
2022-11-05T08:06:35.576Z,8.20
2022-11-05T08:09:03.691Z,8.10
2022-11-05T08:11:32.467Z,8.20
2022-11-05T08:14:00.478Z,8.40
2022-11-05T08:16:29.930Z,8.60
2022-11-05T08:18:57.986Z,8.90
2022-11-05T08:21:26.063Z,9.20
2022-11-05T08:23:54.105Z,9.40
2022-11-05T08:26:22.203Z,9.60
2022-11-05T08:28:50.231Z,9.70
2022-11-05T08:31:18.374Z,9.90
2022-11-05T08:33:47.843Z,10.00
2022-11-05T08:36:15.918Z,10.20
2022-11-05T08:38:43.963Z,10.20
2022-11-05T08:41:12.336Z,10.30
2022-11-05T08:43:40.396Z,10.50
2022-11-05T08:46:08.567Z,10.40
2022-11-05T08:48:36.688Z,10.50
2022-11-05T08:51:06.275Z,10.40
2022-11-05T08:53:34.293Z,10.70
2022-11-05T08:56:02.400Z,10.80
2022-11-05T08:58:30.913Z,10.90
2022-11-05T09:01:04.549Z,11.00
2022-11-05T09:03:33.185Z,11.40
2022-11-05T09:06:01.252Z,11.50
2022-11-05T09:08:30.716Z,11.40
2022-11-05T09:10:58.980Z,11.70
2022-11-05T09:13:27.386Z,12.00
2022-11-05T09:15:55.752Z,12.20
2022-11-05T09:18:23.864Z,12.40
2022-11-05T09:20:51.911Z,12.50
2022-11-05T09:23:20.195Z,13.00
2022-11-05T09:25:50.003Z,13.30
2022-11-05T09:28:20.346Z,13.00
2022-11-05T09:30:50.121Z,12.80
2022-11-05T09:33:19.784Z,13.10
2022-11-05T09:35:48.288Z,13.40
2022-11-05T09:38:16.611Z,12.70
2022-11-05T09:41:00.776Z,12.70
2022-11-05T09:43:35.004Z,12.50
2022-11-05T09:46:09.672Z,12.70
2022-11-05T09:48:40.065Z,12.60
2022-11-05T09:51:08.434Z,12.80
2022-11-05T09:53:41.053Z,12.70
2022-11-05T09:56:21.787Z,12.70
2022-11-05T09:58:52.995Z,12.60
2022-11-05T10:01:25.603Z,12.60
2022-11-05T10:03:57.989Z,12.60
2022-11-05T10:06:28.649Z,12.20
2022-11-05T10:09:03.146Z,11.90
2022-11-05T10:11:37.826Z,12.40
2022-11-05T10:14:15.186Z,12.60
2022-11-05T10:16:48.979Z,13.30
2022-11-05T10:19:24.000Z,13.60
2022-11-05T10:22:10.953Z,13.90
2022-11-05T10:24:42.189Z,14.50
2022-11-05T10:27:17.432Z,14.80
2022-11-05T10:29:46.342Z,15.10
2022-11-05T10:32:21.467Z,14.80
2022-11-05T10:34:51.077Z,14.30
2022-11-05T10:37:20.286Z,13.30
2022-11-05T10:39:49.519Z,13.20
2022-11-05T10:42:36.879Z,13.70
2022-11-05T10:45:15.601Z,14.10
2022-11-05T10:47:57.733Z,14.20
2022-11-05T10:50:28.218Z,14.50
2022-11-05T10:52:59.978Z,14.10
2022-11-05T10:55:31.194Z,13.40
2022-11-05T10:58:12.475Z,13.30
2022-11-05T11:00:41.197Z,12.70
2022-11-05T11:03:34.836Z,12.60
2022-11-05T11:06:07.572Z,12.80
2022-11-05T11:08:37.710Z,12.90
2022-11-05T11:11:09.201Z,13.00
2022-11-05T11:13:53.212Z,13.30
2022-11-05T11:16:24.623Z,13.20
2022-11-05T11:18:55.584Z,13.60
2022-11-05T11:21:24.226Z,14.40
2022-11-05T11:23:56.854Z,14.60
2022-11-05T11:26:26.901Z,14.50
2022-11-05T11:29:00.204Z,14.20
2022-11-05T11:31:30.444Z,13.60
2022-11-05T11:34:02.062Z,13.00
2022-11-05T11:36:37.132Z,12.60
2022-11-05T11:39:07.363Z,12.10
2022-11-05T11:41:37.823Z,11.90
2022-11-05T11:44:13.638Z,11.40
2022-11-05T11:46:42.551Z,11.20
2022-11-05T11:49:32.058Z,11.10
2022-11-05T11:52:04.559Z,11.60
2022-11-05T11:54:34.786Z,12.30
2022-11-05T11:57:03.387Z,13.60
2022-11-05T12:00:06.544Z,14.10
2022-11-05T12:02:44.341Z,13.70
2022-11-05T12:05:27.510Z,13.20
2022-11-05T12:07:58.148Z,12.80
2022-11-05T12:10:54.567Z,12.80
2022-11-05T12:13:51.372Z,12.70
2022-11-05T12:16:40.756Z,12.60
2022-11-05T12:19:19.327Z,12.70
2022-11-05T12:21:55.566Z,12.70
2022-11-05T12:24:58.510Z,13.00
2022-11-05T12:27:45.361Z,12.60
2022-11-05T12:30:16.317Z,12.80
2022-11-05T12:33:00.942Z,12.70
2022-11-05T12:35:47.439Z,12.80
2022-11-05T12:38:25.161Z,12.90
2022-11-05T12:41:06.804Z,12.70
2022-11-05T12:43:45.992Z,12.50
2022-11-05T12:46:26.139Z,12.20
2022-11-05T12:49:19.050Z,12.10
2022-11-05T12:52:03.886Z,12.00
2022-11-05T12:54:44.931Z,12.00
2022-11-05T12:57:15.007Z,11.90
2022-11-05T12:59:49.527Z,11.70
2022-11-05T13:02:23.147Z,11.70
2022-11-05T13:04:57.387Z,11.60
2022-11-05T13:07:29.810Z,11.50
2022-11-05T13:10:03.652Z,11.10
2022-11-05T13:12:36.320Z,11.00
2022-11-05T13:15:08.931Z,11.00
2022-11-05T13:17:43.057Z,10.90
2022-11-05T13:20:18.917Z,10.80
2022-11-05T13:22:49.471Z,10.70
2022-11-05T13:25:22.108Z,10.40
2022-11-05T13:27:57.043Z,10.40
2022-11-05T13:30:27.585Z,10.70
2022-11-05T13:33:01.815Z,11.10
2022-11-05T13:35:37.788Z,12.30
2022-11-05T13:38:27.130Z,13.10
2022-11-05T13:41:08.711Z,13.20
2022-11-05T13:43:54.863Z,12.90
2022-11-05T13:46:50.862Z,12.10
2022-11-05T13:49:44.484Z,11.50
2022-11-05T13:52:42.583Z,11.40
2022-11-05T13:55:44.522Z,11.30
2022-11-05T13:59:01.862Z,11.20
2022-11-05T14:01:44.148Z,11.10
2022-11-05T14:04:20.039Z,10.90
2022-11-05T14:06:48.433Z,11.10
2022-11-05T14:09:25.510Z,11.30
2022-11-05T14:11:57.354Z,11.30
2022-11-05T14:14:29.131Z,11.20
2022-11-05T14:17:15.840Z,10.80
2022-11-05T14:20:10.050Z,10.70
2022-11-05T14:22:42.607Z,10.70
2022-11-05T14:25:54.862Z,10.90
2022-11-05T14:28:50.152Z,10.50
2022-11-05T14:32:06.993Z,10.50
2022-11-05T14:34:46.127Z,10.80
2022-11-05T14:37:33.361Z,11.00
2022-11-05T14:40:28.691Z,11.00
2022-11-05T14:43:01.347Z,11.30
2022-11-05T14:45:31.882Z,10.90
2022-11-05T14:48:02.329Z,10.60
2022-11-05T14:50:37.936Z,10.70
2022-11-05T14:53:14.077Z,10.60
2022-11-05T14:55:44.660Z,10.60
2022-11-05T14:58:36.500Z,10.30
2022-11-05T15:01:06.436Z,10.10
2022-11-05T15:04:00.945Z,9.90
2022-11-05T15:06:35.590Z,9.80
2022-11-05T15:09:30.020Z,9.80
2022-11-05T15:12:15.421Z,9.70
2022-11-05T15:14:56.842Z,9.60
2022-11-05T15:17:29.893Z,9.60
2022-11-05T15:20:07.974Z,9.50
2022-11-05T15:22:41.792Z,9.40
2022-11-05T15:25:18.961Z,9.40
2022-11-05T15:28:05.546Z,9.30
2022-11-05T15:30:35.263Z,9.40
2022-11-05T15:33:11.289Z,9.40
2022-11-05T15:35:42.289Z,9.30
2022-11-05T15:38:29.455Z,9.20
2022-11-05T15:41:02.455Z,9.20
2022-11-05T15:43:31.180Z,9.10
2022-11-05T15:46:02.945Z,9.00
2022-11-05T15:48:31.522Z,9.00
2022-11-05T15:51:00.100Z,9.10
2022-11-05T15:54:08.274Z,9.00
2022-11-05T15:56:31.647Z,9.00
2022-11-05T15:59:03.459Z,8.80
2022-11-05T16:01:36.492Z,8.80
2022-11-05T16:04:18.953Z,8.80
2022-11-05T16:06:50.152Z,8.70
2022-11-05T16:09:24.120Z,8.60
2022-11-05T16:12:12.240Z,8.60
2022-11-05T16:14:40.627Z,8.50
2022-11-05T16:17:20.331Z,8.40
2022-11-05T16:19:48.997Z,8.40
2022-11-05T16:22:17.462Z,8.30
2022-11-05T16:24:46.596Z,8.30
2022-11-05T16:27:19.293Z,8.30
2022-11-05T16:29:53.524Z,8.20
2022-11-05T16:32:30.564Z,8.20
2022-11-05T16:35:01.919Z,8.20
2022-11-05T16:37:36.646Z,8.10
2022-11-05T16:40:14.440Z,8.10
2022-11-05T16:42:43.014Z,8.10
2022-11-05T16:45:14.017Z,8.10
2022-11-05T16:47:44.387Z,8.00
2022-11-05T16:50:19.126Z,8.00
2022-11-05T16:52:47.936Z,8.00
2022-11-05T16:55:17.048Z,7.90
2022-11-05T16:57:46.686Z,7.90
2022-11-05T17:00:17.243Z,7.90
2022-11-05T17:02:46.932Z,7.80
2022-11-05T17:05:20.570Z,7.80
2022-11-05T17:07:48.700Z,7.80
2022-11-05T17:10:17.308Z,7.80
2022-11-05T17:12:45.978Z,7.70
2022-11-05T17:15:18.812Z,7.70
2022-11-05T17:17:48.614Z,7.60
2022-11-05T17:20:40.637Z,7.60
2022-11-05T17:23:11.312Z,7.60
2022-11-05T17:25:40.186Z,7.60
2022-11-05T17:28:09.274Z,7.60
2022-11-05T17:30:41.215Z,7.60
2022-11-05T17:33:12.459Z,7.50
2022-11-05T17:35:41.116Z,7.50
2022-11-05T17:38:09.394Z,7.40
2022-11-05T17:40:38.677Z,7.30
2022-11-05T17:43:07.378Z,7.30
2022-11-05T17:45:35.915Z,7.30
2022-11-05T17:48:05.112Z,7.30
2022-11-05T17:50:34.589Z,7.20
2022-11-05T17:53:02.804Z,7.20
2022-11-05T17:55:30.856Z,7.20
2022-11-05T17:57:59.025Z,7.20
2022-11-05T18:00:27.621Z,7.10
2022-11-05T18:02:56.035Z,7.10
2022-11-05T18:05:25.183Z,7.10
2022-11-05T18:07:55.293Z,7.00
2022-11-05T18:10:24.518Z,7.00
2022-11-05T18:12:52.714Z,6.90
2022-11-05T18:15:21.012Z,6.90
2022-11-05T18:17:49.124Z,6.90
2022-11-05T18:20:19.984Z,6.80
2022-11-05T18:22:50.469Z,6.80
2022-11-05T18:25:20.284Z,6.70
2022-11-05T18:27:48.381Z,6.70
2022-11-05T18:30:16.624Z,6.80
2022-11-05T18:32:45.443Z,6.80
2022-11-05T18:35:14.598Z,6.80
2022-11-05T18:37:43.405Z,6.80
2022-11-05T18:40:12.479Z,6.80
2022-11-05T18:42:42.476Z,6.80
2022-11-05T18:45:12.236Z,6.70
2022-11-05T18:47:40.379Z,6.80
2022-11-05T18:50:10.538Z,6.70
2022-11-05T18:52:38.649Z,6.70
2022-11-05T18:55:07.933Z,6.60
2022-11-05T18:57:36.159Z,6.60
2022-11-05T19:00:06.688Z,6.60
2022-11-05T19:02:34.911Z,6.50
2022-11-05T19:07:51.550Z,6.40
2022-11-05T19:10:19.833Z,6.40
2022-11-05T19:12:47.914Z,6.40
2022-11-05T19:15:17.581Z,6.40
2022-11-05T19:17:45.869Z,6.40
2022-11-05T19:20:14.524Z,6.40
2022-11-05T19:22:42.601Z,6.40
2022-11-05T19:25:10.692Z,6.30
2022-11-05T19:27:39.284Z,6.30
2022-11-05T19:30:08.069Z,6.30
2022-11-05T19:32:37.502Z,6.20
2022-11-05T19:35:06.144Z,6.20
2022-11-05T19:37:34.184Z,6.20
2022-11-05T19:40:02.242Z,6.20
2022-11-05T19:42:30.315Z,6.20
2022-11-05T19:45:16.670Z,6.20
2022-11-05T19:47:47.892Z,6.20
2022-11-05T19:50:16.041Z,6.20
2022-11-05T19:52:44.112Z,6.20
2022-11-05T19:55:12.556Z,6.10
2022-11-05T19:57:40.692Z,6.20
2022-11-05T20:00:10.142Z,6.10
2022-11-05T20:02:38.364Z,6.10
2022-11-05T20:05:08.378Z,6.20
2022-11-05T20:07:36.430Z,6.10
2022-11-05T20:10:05.331Z,6.20
2022-11-05T20:12:34.421Z,6.10
2022-11-05T20:15:02.628Z,6.10
2022-11-05T20:17:30.764Z,6.10
2022-11-05T20:19:59.121Z,6.10
2022-11-05T20:22:28.765Z,6.10
2022-11-05T20:24:56.885Z,6.00
2022-11-05T20:27:24.977Z,6.00
2022-11-05T20:29:53.079Z,6.00
2022-11-05T20:32:21.194Z,6.00
2022-11-05T20:34:49.307Z,6.00
2022-11-05T20:37:17.435Z,6.10
2022-11-05T20:39:47.328Z,6.10
2022-11-05T20:42:15.399Z,6.10
2022-11-05T20:44:43.484Z,6.10
2022-11-05T20:47:11.630Z,6.10
2022-11-05T20:49:39.678Z,6.10
2022-11-05T20:52:07.759Z,6.20
2022-11-05T20:54:36.016Z,6.20
2022-11-05T20:57:05.492Z,6.20
2022-11-05T20:59:33.618Z,6.20
2022-11-05T21:02:01.758Z,6.20
2022-11-05T21:04:29.964Z,6.20
2022-11-05T21:06:58.046Z,6.20
2022-11-05T21:09:26.221Z,6.30
2022-11-05T21:12:12.589Z,6.40
2022-11-05T21:14:44.464Z,6.30
2022-11-05T21:17:14.426Z,6.30
2022-11-05T21:19:42.538Z,6.30
2022-11-05T21:22:11.747Z,6.20
2022-11-05T21:24:39.820Z,6.20
2022-11-05T21:27:07.903Z,6.30
2022-11-05T21:29:36.875Z,6.30
2022-11-05T21:32:06.448Z,6.30
2022-11-05T21:34:34.506Z,6.30
2022-11-05T21:37:02.646Z,6.30
2022-11-05T21:39:30.690Z,6.30
2022-11-05T21:41:58.791Z,6.20
2022-11-05T21:44:26.864Z,6.20
2022-11-05T21:46:57.596Z,6.20
2022-11-05T21:49:27.266Z,6.20
2022-11-05T21:52:12.719Z,6.20
2022-11-05T21:54:58.358Z,6.20
2022-11-05T21:57:43.934Z,6.20
2022-11-05T22:00:13.715Z,6.10
2022-11-05T22:02:42.134Z,6.10
2022-11-05T22:05:12.141Z,6.10
2022-11-05T22:07:40.955Z,6.00
2022-11-05T22:10:15.920Z,6.00
2022-11-05T22:12:44.728Z,6.00
2022-11-05T22:15:13.147Z,6.00
2022-11-05T22:17:46.595Z,6.00
2022-11-05T22:20:16.699Z,6.00
2022-11-05T22:22:45.098Z,6.00
2022-11-05T22:25:14.336Z,6.00
2022-11-05T22:27:43.927Z,6.00
2022-11-05T22:30:13.623Z,6.00
2022-11-05T22:32:41.732Z,6.00
2022-11-05T22:35:10.726Z,6.00
2022-11-05T22:37:40.412Z,6.00
2022-11-05T22:40:09.740Z,5.90
2022-11-05T22:42:37.975Z,5.90
2022-11-05T22:45:07.194Z,5.80
2022-11-05T22:47:35.283Z,6.00
2022-11-05T22:50:03.356Z,5.90
2022-11-05T22:52:32.793Z,5.90
2022-11-05T22:55:03.582Z,5.90
2022-11-05T22:57:31.644Z,5.90
2022-11-05T22:59:59.970Z,5.90
2022-11-05T23:02:28.268Z,5.80
2022-11-05T23:04:56.460Z,5.80
2022-11-05T23:07:41.978Z,5.80
2022-11-05T23:10:29.197Z,5.90
2022-11-05T23:12:57.316Z,5.90
2022-11-05T23:15:41.796Z,5.90
2022-11-05T23:18:28.297Z,5.90
2022-11-05T23:21:14.742Z,5.90
2022-11-05T23:24:02.615Z,5.90
2022-11-05T23:26:52.686Z,5.80
2022-11-05T23:29:22.755Z,5.90
2022-11-05T23:32:08.427Z,5.90
2022-11-05T23:34:36.951Z,5.90
2022-11-05T23:37:22.492Z,6.00
2022-11-05T23:39:51.378Z,5.90
2022-11-05T23:42:38.048Z,6.10
2022-11-05T23:45:24.415Z,6.10
2022-11-05T23:48:10.630Z,6.20
2022-11-05T23:50:40.117Z,6.20
2022-11-05T23:53:09.021Z,6.30
2022-11-05T23:55:37.304Z,6.30
2022-11-05T23:58:06.872Z,6.30
